Ventura, California
Current Conditions -  °F | °C
As of 11:51 PM on Sunday 23 Nov 2014 (Local Time) from KOXR Reporting Station
Clear Clear  
Wind Chill: 61°   Ceiling: Unl
Heat Index: 61°   Visibility: 10mi
Dew Point: 28°   Wind: 9mph
Humidity: 29%   Direction: 20°NNE
Pressure: 30.16"   Gusts: NA
Location:  34.28°N, 119.29°W
Report Text: KOXR 240751Z AUTO 02008KT 10SM CLR 16/M02 A3016 RMK AO2 SLP210 T01611022 402560106
Loading
Personal Weather Stations






























Interactive Weather Map New forecast layout! Learn more

10-Day Weather Forecast

Advertisements
Track Severe Weather on mobile